Time;durP1;ratioP1;P1;durP2;ratioP2;P2;SDS_P1;SDS_P2;PMS_P1;PMS_P2;Temp;Humidity;BMP_temperature;BMP_pressure;BME280_temperature;BME280_humidity;BME280_pressure;Samples;Min_cycle;Max_cycle;Signal;HPM_P1;HPM_P2
2020/12/26 00:01:57;;;;;;;9.02;3.50;;;2.40;99.90;;;;;;5071333;28;20032;-60
2020/12/26 00:04:23;;;;;;;11.15;3.75;;;2.40;99.90;;;;;;5070583;28;20468;-60
2020/12/26 00:06:51;;;;;;;8.52;4.13;;;2.30;99.90;;;;;;5081528;28;20032;-58
2020/12/26 00:09:17;;;;;;;14.10;3.78;;;2.30;99.90;;;;;;5061846;28;20027;-60
2020/12/26 00:11:43;;;;;;;8.70;3.80;;;2.30;99.90;;;;;;5064858;28;20502;-59
2020/12/26 00:14:08;;;;;;;9.70;4.28;;;2.30;99.90;;;;;;5071880;28;20035;-60
2020/12/26 00:16:34;;;;;;;11.93;4.50;;;2.40;99.90;;;;;;5068872;28;20066;-59
2020/12/26 00:19:00;;;;;;;20.52;8.00;;;2.40;99.90;;;;;;5091116;28;20035;-59
2020/12/26 00:21:26;;;;;;;15.73;5.38;;;2.40;99.90;;;;;;5077167;28;20047;-59
2020/12/26 00:23:51;;;;;;;23.63;9.68;;;2.40;99.90;;;;;;5091673;28;20039;-59
2020/12/26 00:26:18;;;;;;;11.73;4.38;;;2.50;99.90;;;;;;5083525;28;20082;-60
2020/12/26 00:28:44;;;;;;;13.18;4.38;;;2.50;99.90;;;;;;5091264;28;20071;-59
2020/12/26 00:31:15;;;;;;;8.68;4.70;;;2.50;99.90;;;;;;5076321;28;20382;-60
2020/12/26 00:33:41;;;;;;;12.40;4.55;;;2.40;99.90;;;;;;5072996;28;20036;-59
2020/12/26 00:36:07;;;;;;;8.35;3.85;;;2.40;99.90;;;;;;5071491;28;20040;-59
2020/12/26 00:38:32;;;;;;;13.43;4.70;;;2.40;99.90;;;;;;5070253;28;20090;-62
2020/12/26 00:40:58;;;;;;;12.07;4.55;;;2.40;99.90;;;;;;5081450;28;20027;-61
2020/12/26 00:43:24;;;;;;;12.50;4.82;;;2.40;99.90;;;;;;5091202;28;20032;-60
2020/12/26 00:45:50;;;;;;;8.82;4.32;;;2.30;99.90;;;;;;5075896;28;20036;-59
2020/12/26 00:48:16;;;;;;;13.15;4.57;;;2.30;99.90;;;;;;5071409;28;20104;-59
2020/12/26 00:50:41;;;;;;;13.10;4.88;;;2.20;99.90;;;;;;5069495;28;20190;-58
2020/12/26 00:53:07;;;;;;;19.90;7.80;;;2.10;99.90;;;;;;5071013;28;20051;-58
2020/12/26 00:55:33;;;;;;;11.57;5.00;;;2.10;99.90;;;;;;5078777;28;20033;-60
2020/12/26 00:57:58;;;;;;;9.40;4.82;;;2.10;99.90;;;;;;5063854;28;20029;-59
2020/12/26 01:00:24;;;;;;;14.77;5.05;;;2.10;99.90;;;;;;5071554;28;20033;-59
2020/12/26 01:02:50;;;;;;;8.35;4.43;;;2.10;99.90;;;;;;5050580;28;20033;-60
2020/12/26 01:05:15;;;;;;;12.07;4.80;;;2.10;99.90;;;;;;5073418;28;20498;-60
2020/12/26 01:07:41;;;;;;;11.68;4.72;;;2.10;99.90;;;;;;5079849;28;20024;-60
2020/12/26 01:10:07;;;;;;;14.18;4.75;;;2.10;99.90;;;;;;5059037;28;20020;-59
2020/12/26 01:12:33;;;;;;;12.85;5.07;;;2.10;99.90;;;;;;5071171;28;20119;-60
2020/12/26 01:14:58;;;;;;;16.58;5.07;;;2.00;99.90;;;;;;5064841;28;20040;-58
2020/12/26 01:17:25;;;;;;;13.00;5.30;;;2.10;99.90;;;;;;5056456;28;20024;-61
2020/12/26 01:19:50;;;;;;;14.52;5.13;;;2.00;99.90;;;;;;5055283;28;20053;-60
2020/12/26 01:22:16;;;;;;;11.02;5.07;;;2.00;99.90;;;;;;5070768;28;20125;-59
2020/12/26 01:24:42;;;;;;;11.13;5.63;;;1.90;99.90;;;;;;5070952;28;20036;-61
2020/12/26 01:27:08;;;;;;;12.05;4.78;;;1.80;99.90;;;;;;5050202;28;20036;-59
2020/12/26 01:29:37;;;;;;;10.05;5.05;;;1.80;99.90;;;;;;5065506;28;20031;-60
2020/12/26 01:32:02;;;;;;;14.38;5.13;;;1.80;99.90;;;;;;5051837;28;20087;-60
2020/12/26 01:34:28;;;;;;;8.68;4.65;;;1.90;99.90;;;;;;5058450;28;20033;-60
2020/12/26 01:36:54;;;;;;;10.82;5.03;;;1.90;99.90;;;;;;5087312;28;20043;-60
2020/12/26 01:39:21;;;;;;;11.93;5.00;;;2.00;99.90;;;;;;5073222;28;20809;-59
2020/12/26 01:41:51;;;;;;;12.25;4.93;;;2.00;99.90;;;;;;5088089;28;20028;-61
2020/12/26 01:44:17;;;;;;;8.90;4.35;;;2.00;99.90;;;;;;5069769;28;20033;-58
2020/12/26 01:46:45;;;;;;;10.85;4.68;;;2.00;99.90;;;;;;5087444;28;20059;-59
2020/12/26 01:49:11;;;;;;;12.05;4.72;;;2.00;99.90;;;;;;5072416;28;20032;-61
2020/12/26 01:51:38;;;;;;;11.60;4.75;;;2.00;99.90;;;;;;5090894;28;20063;-59
2020/12/26 01:54:04;;;;;;;11.35;4.82;;;2.00;99.90;;;;;;5076168;28;20481;-62
2020/12/26 01:56:31;;;;;;;9.32;5.03;;;1.90;99.90;;;;;;5088837;28;20127;-60
2020/12/26 01:58:56;;;;;;;11.07;4.65;;;1.90;99.90;;;;;;5060635;28;20378;-60
2020/12/26 02:01:40;;;;;;;10.90;4.70;;;1.90;99.90;;;;;;5092408;28;20055;-60
2020/12/26 02:04:06;;;;;;;10.25;4.68;;;1.80;99.90;;;;;;5075653;28;20108;-59
2020/12/26 02:06:37;;;;;;;11.05;4.82;;;1.80;99.90;;;;;;5073888;28;20031;-59
2020/12/26 02:09:04;;;;;;;12.52;5.32;;;1.80;99.90;;;;;;5073779;28;20037;-60
2020/12/26 02:11:30;;;;;;;17.30;5.15;;;1.80;99.90;;;;;;5071139;28;20076;-60
2020/12/26 02:13:56;;;;;;;11.88;4.93;;;1.70;99.90;;;;;;5072640;28;20536;-61
2020/12/26 02:16:22;;;;;;;12.93;4.85;;;1.70;99.90;;;;;;5073587;28;20787;-61
2020/12/26 02:18:49;;;;;;;11.48;4.75;;;1.60;99.90;;;;;;5086957;28;20371;-58
2020/12/26 02:21:15;;;;;;;10.25;4.47;;;1.70;99.90;;;;;;5072988;28;20027;-60
2020/12/26 02:23:47;;;;;;;10.98;4.68;;;1.60;99.90;;;;;;5073142;28;20031;-59
2020/12/26 02:26:14;;;;;;;10.80;4.80;;;1.70;99.90;;;;;;5084504;28;20028;-60
2020/12/26 02:28:41;;;;;;;12.98;4.55;;;1.70;99.90;;;;;;5073352;28;20035;-59
2020/12/26 02:31:07;;;;;;;11.48;4.57;;;1.70;99.90;;;;;;5081662;28;20033;-60
2020/12/26 02:33:34;;;;;;;9.90;4.38;;;1.70;99.90;;;;;;5072795;28;20024;-59
2020/12/26 02:36:04;;;;;;;9.40;4.38;;;1.60;99.90;;;;;;5076130;28;20047;-60
2020/12/26 02:38:30;;;;;;;9.50;4.32;;;1.70;99.90;;;;;;5052833;28;20036;-60
2020/12/26 02:40:55;;;;;;;11.88;4.75;;;1.80;99.90;;;;;;5065663;28;20375;-59
2020/12/26 02:43:25;;;;;;;11.75;4.50;;;1.80;99.90;;;;;;5059979;28;20440;-59
2020/12/26 02:45:53;;;;;;;9.98;4.20;;;1.80;99.90;;;;;;5069736;28;20059;-60
2020/12/26 02:48:19;;;;;;;10.73;4.15;;;1.90;99.90;;;;;;5078044;28;20098;-60
2020/12/26 02:50:45;;;;;;;8.50;4.00;;;1.90;99.90;;;;;;5065860;28;20112;-59
2020/12/26 02:53:10;;;;;;;12.05;4.18;;;1.90;99.90;;;;;;5052802;28;20033;-61
2020/12/26 02:55:36;;;;;;;9.25;4.13;;;1.80;99.90;;;;;;5055806;28;20033;-58
2020/12/26 02:58:03;;;;;;;8.95;3.85;;;1.90;99.90;;;;;;5055481;28;20079;-59
2020/12/26 03:00:29;;;;;;;9.93;4.32;;;2.00;99.90;;;;;;5071597;28;20063;-61
2020/12/26 03:02:55;;;;;;;11.55;4.00;;;2.00;99.90;;;;;;5066928;28;20043;-60
2020/12/26 03:05:21;;;;;;;16.65;4.28;;;2.10;99.90;;;;;;5054305;28;20108;-60
2020/12/26 03:07:47;;;;;;;6.68;3.42;;;2.10;99.90;;;;;;5051998;28;20142;-61
2020/12/26 03:10:12;;;;;;;10.00;4.03;;;2.10;99.90;;;;;;5076994;28;20099;-61
2020/12/26 03:12:38;;;;;;;9.40;4.05;;;2.10;99.90;;;;;;5087627;28;20049;-59
2020/12/26 03:15:05;;;;;;;12.15;4.55;;;2.00;99.90;;;;;;5060830;28;20086;-61
2020/12/26 03:17:31;;;;;;;10.32;3.92;;;2.00;99.90;;;;;;5071111;28;20067;-59
2020/12/26 03:20:00;;;;;;;8.90;4.10;;;2.00;99.90;;;;;;5076446;28;20051;-59
2020/12/26 03:22:27;;;;;;;9.15;4.28;;;2.10;99.90;;;;;;5077430;28;20107;-61
2020/12/26 03:24:56;;;;;;;9.98;4.15;;;2.20;99.90;;;;;;5076471;28;20032;-61
2020/12/26 03:27:22;;;;;;;11.20;4.22;;;2.30;99.90;;;;;;5078843;28;20484;-60
2020/12/26 03:29:49;;;;;;;7.55;4.03;;;2.40;99.90;;;;;;5065061;28;20043;-60
2020/12/26 03:32:15;;;;;;;7.95;3.70;;;2.40;99.90;;;;;;5072677;28;20025;-58
2020/12/26 03:34:41;;;;;;;8.15;3.72;;;2.40;99.90;;;;;;5055153;28;20029;-60
2020/12/26 03:37:07;;;;;;;6.88;3.85;;;2.50;99.90;;;;;;5067662;28;20398;-59
2020/12/26 03:39:35;;;;;;;10.63;4.10;;;2.50;99.90;;;;;;5071320;28;20103;-58
2020/12/26 03:42:09;;;;;;;9.82;4.45;;;2.60;99.90;;;;;;5072569;28;20121;-58
2020/12/26 03:44:36;;;;;;;9.38;4.07;;;2.60;99.90;;;;;;5057612;28;20390;-60
2020/12/26 03:47:06;;;;;;;11.02;4.05;;;2.60;99.90;;;;;;5052290;28;20028;-59
2020/12/26 03:49:32;;;;;;;13.73;3.85;;;2.60;99.90;;;;;;5065656;28;20538;-60
2020/12/26 03:51:58;;;;;;;10.07;3.63;;;2.60;99.90;;;;;;5072297;28;20504;-59
2020/12/26 03:54:24;;;;;;;8.00;3.90;;;2.60;99.90;;;;;;5083112;28;20024;-58
2020/12/26 03:56:49;;;;;;;8.52;3.63;;;2.60;99.90;;;;;;5092212;28;20485;-61
2020/12/26 03:59:15;;;;;;;8.65;3.83;;;2.60;99.90;;;;;;5076516;28;20028;-59
2020/12/26 04:01:41;;;;;;;9.60;3.72;;;2.70;99.90;;;;;;5070421;28;20375;-60
2020/12/26 04:04:07;;;;;;;13.23;4.13;;;2.60;99.90;;;;;;5081161;28;20138;-59
2020/12/26 04:06:33;;;;;;;8.32;3.85;;;2.70;99.90;;;;;;5071848;28;20116;-60
2020/12/26 04:08:59;;;;;;;7.80;4.00;;;2.70;99.90;;;;;;5077469;28;20465;-59
2020/12/26 04:11:25;;;;;;;9.98;3.67;;;2.80;99.90;;;;;;5060577;28;20134;-60
2020/12/26 04:13:51;;;;;;;6.63;3.42;;;2.80;99.90;;;;;;5074295;28;20547;-58
2020/12/26 04:16:18;;;;;;;11.07;3.72;;;2.90;99.90;;;;;;5078974;28;20029;-59
2020/12/26 04:18:44;;;;;;;9.82;3.97;;;3.00;99.90;;;;;;5067017;28;20036;-61
2020/12/26 04:21:10;;;;;;;7.57;3.67;;;3.00;99.90;;;;;;5074154;28;20494;-60
2020/12/26 04:23:36;;;;;;;9.27;4.00;;;3.00;99.90;;;;;;5071003;28;20025;-59
2020/12/26 04:26:02;;;;;;;8.15;3.72;;;3.00;99.90;;;;;;5072465;28;20497;-60
2020/12/26 04:28:28;;;;;;;8.20;3.85;;;2.90;99.90;;;;;;5074358;28;20024;-61
2020/12/26 04:30:54;;;;;;;11.90;4.15;;;2.90;99.90;;;;;;5087829;28;20035;-58
2020/12/26 04:33:20;;;;;;;13.52;4.30;;;3.00;99.90;;;;;;5075874;28;20035;-59
2020/12/26 04:35:46;;;;;;;13.52;3.80;;;3.00;99.90;;;;;;5091159;28;20024;-59
2020/12/26 04:38:12;;;;;;;10.98;3.85;;;3.00;99.90;;;;;;5072385;28;20055;-60
2020/12/26 04:40:38;;;;;;;10.23;4.05;;;3.00;99.90;;;;;;5071004;28;20487;-60
2020/12/26 04:43:06;;;;;;;8.98;4.47;;;3.00;99.90;;;;;;5078598;28;20107;-59
2020/12/26 04:45:32;;;;;;;8.50;3.80;;;3.00;99.90;;;;;;5089982;28;20067;-61
2020/12/26 04:48:03;;;;;;;10.65;4.45;;;3.00;99.90;;;;;;5055034;28;20043;-60
2020/12/26 04:50:31;;;;;;;11.60;4.30;;;3.00;99.90;;;;;;5071028;28;20034;-60
2020/12/26 04:52:59;;;;;;;12.07;4.32;;;2.90;99.90;;;;;;5070447;28;20032;-59
2020/12/26 04:55:33;;;;;;;9.45;3.75;;;3.00;99.90;;;;;;5065518;28;20036;-59
2020/12/26 04:58:10;;;;;;;10.03;4.00;;;3.00;99.90;;;;;;5064178;28;20033;-59
2020/12/26 05:00:37;;;;;;;8.88;4.28;;;3.00;99.90;;;;;;5067132;28;20078;-58
2020/12/26 05:03:08;;;;;;;10.38;4.35;;;3.00;99.90;;;;;;5051371;28;20040;-60
2020/12/26 05:05:35;;;;;;;9.82;4.03;;;3.00;99.90;;;;;;5075827;28;20028;-59
2020/12/26 05:08:09;;;;;;;8.65;4.22;;;3.00;99.90;;;;;;5074888;28;20028;-58
2020/12/26 05:10:36;;;;;;;8.43;4.25;;;3.10;99.90;;;;;;5077123;28;20029;-59
2020/12/26 05:13:04;;;;;;;8.40;4.00;;;3.10;99.90;;;;;;5071407;28;20090;-60
2020/12/26 05:15:30;;;;;;;8.77;4.13;;;3.10;99.90;;;;;;5069874;28;20060;-58
2020/12/26 05:17:56;;;;;;;10.00;5.05;;;3.10;99.90;;;;;;5072876;28;20108;-60
2020/12/26 05:20:23;;;;;;;6.57;3.83;;;3.00;99.90;;;;;;5073360;28;20162;-60
2020/12/26 05:23:05;;;;;;;11.00;4.30;;;3.10;99.90;;;;;;5072260;28;20052;-59
2020/12/26 05:25:30;;;;;;;8.70;4.30;;;3.10;99.90;;;;;;5072949;28;20029;-58
2020/12/26 05:28:10;;;;;;;13.88;4.22;;;3.10;99.90;;;;;;5075486;28;20027;-59
2020/12/26 05:30:37;;;;;;;7.07;3.95;;;3.10;99.90;;;;;;5082266;28;20505;-60
2020/12/26 05:33:05;;;;;;;10.18;4.15;;;3.10;99.90;;;;;;5076847;28;20077;-60
2020/12/26 05:35:39;;;;;;;10.32;4.07;;;3.10;99.90;;;;;;5082871;28;20036;-59
2020/12/26 05:38:11;;;;;;;10.20;4.32;;;3.10;99.90;;;;;;5075291;28;20043;-58
2020/12/26 05:40:54;;;;;;;8.05;3.95;;;3.10;99.90;;;;;;5063626;28;20029;-59
2020/12/26 05:43:22;;;;;;;8.25;3.72;;;3.20;99.90;;;;;;5071205;28;20553;-59
2020/12/26 05:45:49;;;;;;;10.27;4.20;;;3.10;99.90;;;;;;5069955;28;20060;-59
2020/12/26 05:48:23;;;;;;;8.60;4.30;;;3.10;99.90;;;;;;5060618;28;20028;-59
2020/12/26 05:50:53;;;;;;;8.73;4.35;;;3.10;99.90;;;;;;5078460;28;20051;-58
2020/12/26 05:53:23;;;;;;;10.27;4.20;;;3.10;99.90;;;;;;5077353;28;21832;-60
2020/12/26 05:55:49;;;;;;;14.35;4.63;;;3.10;99.90;;;;;;5067522;28;20400;-58
2020/12/26 05:58:22;;;;;;;10.32;4.32;;;3.10;99.90;;;;;;5068890;28;20071;-60
2020/12/26 06:00:49;;;;;;;12.40;4.85;;;3.00;99.90;;;;;;5067222;28;20033;-61
2020/12/26 06:03:27;;;;;;;8.35;4.22;;;3.00;99.90;;;;;;5055406;28;20032;-60
2020/12/26 06:05:58;;;;;;;7.72;4.10;;;3.00;99.90;;;;;;5053945;28;20128;-59
2020/12/26 06:08:24;;;;;;;10.05;4.40;;;3.00;99.90;;;;;;5073217;28;20099;-59
2020/12/26 06:10:54;;;;;;;9.63;4.25;;;3.00;99.90;;;;;;5075051;28;20036;-61
2020/12/26 06:13:24;;;;;;;10.38;4.30;;;3.00;99.90;;;;;;5062888;28;20385;-59
2020/12/26 06:15:55;;;;;;;8.40;4.15;;;3.00;99.90;;;;;;5087144;28;20065;-59
2020/12/26 06:18:23;;;;;;;11.95;4.70;;;3.00;99.90;;;;;;5063522;28;20427;-61
2020/12/26 06:20:53;;;;;;;13.75;4.28;;;3.00;99.90;;;;;;5081671;28;20115;-58
2020/12/26 06:23:21;;;;;;;9.73;4.10;;;3.00;99.90;;;;;;5089933;28;20094;-60
2020/12/26 06:25:47;;;;;;;11.45;4.07;;;3.00;99.90;;;;;;5054231;28;20437;-58
2020/12/26 06:28:22;;;;;;;10.38;4.20;;;2.90;99.90;;;;;;5057558;28;20024;-61
2020/12/26 06:30:48;;;;;;;8.75;4.20;;;2.90;99.90;;;;;;5054852;28;20094;-60
2020/12/26 06:33:15;;;;;;;6.78;3.80;;;2.90;99.90;;;;;;5059407;28;20444;-59
2020/12/26 06:35:44;;;;;;;6.55;3.67;;;2.90;99.90;;;;;;5056292;28;20191;-59
2020/12/26 06:38:14;;;;;;;8.20;3.78;;;2.90;99.90;;;;;;5057223;28;20382;-59
2020/12/26 06:40:56;;;;;;;6.40;3.55;;;2.90;99.90;;;;;;5059397;28;20036;-59
2020/12/26 06:43:43;;;;;;;7.35;3.75;;;3.00;99.90;;;;;;5068523;28;20059;-59
2020/12/26 06:46:29;;;;;;;11.18;4.30;;;3.00;99.90;;;;;;5072313;28;20042;-60
2020/12/26 06:48:57;;;;;;;7.03;3.50;;;3.00;99.90;;;;;;5065843;28;20050;-59
2020/12/26 06:51:31;;;;;;;7.18;3.30;;;3.00;99.90;;;;;;5093884;28;20071;-61
2020/12/26 06:54:03;;;;;;;8.15;3.63;;;3.00;99.90;;;;;;5067456;28;20504;-60
2020/12/26 06:56:32;;;;;;;7.60;3.58;;;3.00;99.90;;;;;;5092371;28;20040;-59
2020/12/26 06:58:59;;;;;;;7.00;3.50;;;3.10;99.90;;;;;;5076661;28;20067;-59
2020/12/26 07:01:25;;;;;;;7.53;3.83;;;3.10;99.90;;;;;;5081650;28;20036;-59
2020/12/26 07:04:10;;;;;;;6.93;3.03;;;3.00;99.90;;;;;;5074875;28;20036;-60
2020/12/26 07:06:50;;;;;;;8.88;3.78;;;3.10;99.90;;;;;;5091951;28;20158;-59
2020/12/26 07:09:18;;;;;;;12.93;3.70;;;3.10;99.90;;;;;;5072414;28;20025;-58
2020/12/26 07:11:53;;;;;;;5.47;2.95;;;3.10;99.90;;;;;;5079861;28;20059;-59
2020/12/26 07:14:32;;;;;;;7.75;3.22;;;3.10;99.90;;;;;;5078200;28;20034;-58
2020/12/26 07:17:04;;;;;;;6.45;3.45;;;3.10;99.90;;;;;;5084916;28;20044;-59
2020/12/26 07:19:51;;;;;;;10.50;3.42;;;3.20;99.90;;;;;;5051172;28;20752;-62
2020/12/26 07:22:30;;;;;;;10.25;3.67;;;3.20;99.90;;;;;;5067930;28;20020;-60
2020/12/26 07:25:07;;;;;;;8.35;3.33;;;3.20;99.90;;;;;;5081365;28;20035;-60
2020/12/26 07:27:33;;;;;;;6.18;3.28;;;3.30;99.90;;;;;;5067269;28;20429;-59
2020/12/26 07:30:18;;;;;;;8.70;3.58;;;3.30;99.90;;;;;;5052075;28;20033;-60
2020/12/26 07:32:50;;;;;;;10.40;3.55;;;3.40;99.90;;;;;;5062696;28;20071;-62
2020/12/26 07:35:22;;;;;;;7.00;2.60;;;3.40;99.90;;;;;;5068059;28;20090;-60
2020/12/26 07:37:56;;;;;;;6.57;3.10;;;3.50;99.90;;;;;;5063167;28;20061;-61
2020/12/26 07:40:24;;;;;;;7.35;3.45;;;3.50;99.90;;;;;;5071606;28;20363;-59
2020/12/26 07:42:50;;;;;;;8.85;2.90;;;3.50;99.90;;;;;;5069443;28;20441;-58
2020/12/26 07:45:17;;;;;;;10.10;3.63;;;3.50;99.90;;;;;;5051871;28;20037;-60
2020/12/26 07:47:45;;;;;;;11.20;3.25;;;3.60;99.90;;;;;;5068137;28;20112;-59
2020/12/26 07:50:14;;;;;;;9.95;3.15;;;3.60;99.90;;;;;;5075630;28;20038;-58
2020/12/26 07:52:51;;;;;;;7.50;3.55;;;3.70;99.90;;;;;;5080841;28;20032;-59
2020/12/26 07:55:17;;;;;;;9.35;3.55;;;3.70;99.90;;;;;;5058402;28;20041;-60
2020/12/26 07:57:43;;;;;;;8.60;3.25;;;3.80;99.90;;;;;;5079016;28;20094;-59
2020/12/26 08:00:20;;;;;;;8.93;3.25;;;3.80;99.90;;;;;;5072343;28;20036;-59
2020/12/26 08:02:50;;;;;;;6.30;3.25;;;3.90;99.90;;;;;;5069305;28;20032;-58
2020/12/26 08:05:30;;;;;;;7.60;2.65;;;3.90;99.90;;;;;;5057236;28;20060;-59
2020/12/26 08:07:56;;;;;;;11.98;3.65;;;3.90;99.90;;;;;;5066512;28;20028;-59
2020/12/26 08:10:22;;;;;;;11.02;3.30;;;4.00;99.90;;;;;;5083336;28;20454;-60
2020/12/26 08:12:59;;;;;;;9.35;3.15;;;4.00;99.90;;;;;;5065664;28;20063;-60
2020/12/26 08:15:29;;;;;;;7.65;3.38;;;4.00;99.90;;;;;;5077956;28;20038;-60
2020/12/26 08:18:01;;;;;;;14.23;3.92;;;4.00;99.90;;;;;;5074844;28;20496;-60
2020/12/26 08:20:29;;;;;;;10.77;3.45;;;4.10;99.90;;;;;;5069995;28;20078;-60
2020/12/26 08:22:56;;;;;;;8.98;3.78;;;4.10;99.90;;;;;;5083179;28;20461;-60
2020/12/26 08:25:25;;;;;;;5.75;3.25;;;4.10;99.90;;;;;;5081493;28;20467;-59
2020/12/26 08:27:51;;;;;;;8.90;3.53;;;4.10;99.90;;;;;;5054788;28;20036;-59
2020/12/26 08:30:21;;;;;;;10.68;4.07;;;4.10;99.90;;;;;;5060645;28;20029;-61
2020/12/26 08:33:04;;;;;;;6.63;3.30;;;4.20;99.90;;;;;;5081183;28;20028;-61
2020/12/26 08:35:30;;;;;;;8.68;5.05;;;4.20;99.90;;;;;;5057380;28;20078;-61
2020/12/26 08:38:01;;;;;;;9.25;4.15;;;4.30;99.90;;;;;;5074713;28;20409;-59
2020/12/26 08:40:30;;;;;;;14.60;6.85;;;4.30;99.90;;;;;;5066200;28;20089;-60
2020/12/26 08:42:55;;;;;;;8.93;4.30;;;4.30;99.90;;;;;;5069751;28;20038;-58
2020/12/26 08:45:33;;;;;;;10.45;3.90;;;4.40;99.90;;;;;;5052160;28;20124;-60
2020/12/26 08:48:16;;;;;;;7.20;2.95;;;4.40;99.90;;;;;;5055459;28;20033;-61
2020/12/26 08:50:42;;;;;;;10.25;4.20;;;4.40;99.90;;;;;;5076221;28;20033;-60
2020/12/26 08:53:10;;;;;;;9.98;3.80;;;4.40;99.90;;;;;;5063045;28;20036;-61
2020/12/26 08:55:53;;;;;;;7.90;3.50;;;4.50;99.90;;;;;;5064839;28;20151;-60
2020/12/26 08:58:37;;;;;;;10.68;3.80;;;4.50;99.90;;;;;;5073358;28;20032;-61
2020/12/26 09:01:06;;;;;;;15.32;3.90;;;4.50;99.90;;;;;;5083119;28;20028;-61
2020/12/26 09:03:34;;;;;;;8.30;3.92;;;4.60;99.90;;;;;;5090943;28;20028;-59
2020/12/26 09:06:02;;;;;;;12.35;3.83;;;4.60;99.90;;;;;;5072881;28;20444;-60
2020/12/26 09:08:35;;;;;;;12.15;4.85;;;4.60;99.90;;;;;;5077079;28;20064;-60
2020/12/26 09:11:05;;;;;;;10.10;4.10;;;4.60;99.90;;;;;;5072724;28;20051;-61
2020/12/26 09:13:47;;;;;;;9.05;3.92;;;4.60;99.90;;;;;;5083173;28;20024;-63
2020/12/26 09:16:14;;;;;;;14.00;7.95;;;4.70;99.90;;;;;;5075099;28;20025;-59
2020/12/26 09:18:50;;;;;;;9.05;4.03;;;4.70;99.90;;;;;;5094810;28;20064;-59
2020/12/26 09:21:26;;;;;;;9.13;3.70;;;4.70;99.90;;;;;;5055596;28;20029;-61
2020/12/26 09:23:56;;;;;;;9.60;4.70;;;4.80;99.90;;;;;;5066421;28;20037;-60
2020/12/26 09:26:23;;;;;;;8.70;3.33;;;4.90;99.90;;;;;;5063619;28;20557;-62
2020/12/26 09:28:52;;;;;;;9.63;3.90;;;4.90;99.90;;;;;;5072748;28;20029;-61
2020/12/26 09:31:23;;;;;;;10.02;3.60;;;4.90;99.90;;;;;;5077660;28;20476;-60
2020/12/26 09:33:49;;;;;;;11.57;6.03;;;4.90;99.90;;;;;;5075817;28;20040;-60
2020/12/26 09:36:18;;;;;;;6.50;3.95;;;5.00;99.90;;;;;;5058641;28;20486;-59
2020/12/26 09:38:44;;;;;;;9.23;3.72;;;5.00;99.90;;;;;;5076377;28;20397;-59
2020/12/26 09:41:14;;;;;;;4.57;3.15;;;5.10;99.90;;;;;;5074207;28;20024;-59
2020/12/26 09:43:41;;;;;;;7.88;3.42;;;5.10;99.90;;;;;;5082556;28;20024;-59
2020/12/26 09:46:07;;;;;;;6.85;3.50;;;5.20;99.90;;;;;;5078845;28;20029;-62
2020/12/26 09:48:33;;;;;;;9.68;4.53;;;5.20;99.90;;;;;;5074272;28;20050;-61
2020/12/26 09:50:59;;;;;;;56.72;26.70;;;5.20;99.90;;;;;;5069860;28;20413;-61
2020/12/26 09:53:25;;;;;;;15.77;7.38;;;5.20;99.90;;;;;;5081492;28;20024;-62
2020/12/26 09:55:51;;;;;;;9.63;4.35;;;5.30;99.90;;;;;;5059311;28;20024;-60
2020/12/26 09:58:17;;;;;;;30.73;16.02;;;5.30;99.90;;;;;;5074678;28;20086;-60
2020/12/26 10:00:43;;;;;;;29.67;14.38;;;5.30;99.90;;;;;;5071352;28;20028;-60
2020/12/26 10:03:09;;;;;;;8.35;5.10;;;5.30;99.90;;;;;;5054194;28;20437;-61
2020/12/26 10:05:34;;;;;;;12.85;6.25;;;5.40;99.90;;;;;;5061588;28;20089;-60
2020/12/26 10:08:00;;;;;;;7.50;4.82;;;5.40;99.90;;;;;;5069572;28;20036;-60
2020/12/26 10:10:26;;;;;;;6.03;3.28;;;5.40;99.90;;;;;;5074548;28;20035;-61
2020/12/26 10:12:52;;;;;;;7.90;3.42;;;5.50;99.90;;;;;;5080544;28;20049;-59
2020/12/26 10:15:18;;;;;;;9.70;5.00;;;5.50;99.90;;;;;;5061498;28;20040;-61
2020/12/26 10:17:44;;;;;;;6.97;3.60;;;5.50;99.90;;;;;;5081015;28;20040;-61
2020/12/26 10:20:10;;;;;;;5.25;3.90;;;5.60;99.90;;;;;;5083699;28;20081;-61
2020/12/26 10:22:36;;;;;;;7.18;3.85;;;5.60;99.90;;;;;;5071658;28;20028;-59
2020/12/26 10:25:02;;;;;;;6.53;3.90;;;5.60;99.90;;;;;;5078143;28;20058;-60
2020/12/26 10:27:28;;;;;;;8.40;4.40;;;5.70;99.90;;;;;;5067047;28;20060;-61
2020/12/26 10:29:53;;;;;;;9.40;4.60;;;5.70;99.90;;;;;;5085159;28;20067;-60
2020/12/26 10:32:19;;;;;;;6.88;3.80;;;5.70;99.90;;;;;;5069752;28;20028;-60
2020/12/26 10:34:45;;;;;;;9.20;4.32;;;5.80;99.90;;;;;;5076209;28;20029;-61
2020/12/26 10:37:14;;;;;;;7.78;3.47;;;5.90;99.90;;;;;;5072500;28;20039;-61
2020/12/26 10:39:40;;;;;;;8.20;4.30;;;5.90;99.90;;;;;;5065752;28;20060;-60
2020/12/26 10:42:05;;;;;;;6.13;2.97;;;5.90;99.90;;;;;;5073715;28;20416;-61
2020/12/26 10:44:31;;;;;;;8.18;3.70;;;6.00;99.90;;;;;;5078895;28;20436;-58
2020/12/26 10:46:57;;;;;;;7.40;4.15;;;6.00;99.90;;;;;;5054107;28;20040;-60
2020/12/26 10:49:22;;;;;;;9.27;3.83;;;6.10;99.90;;;;;;5064094;28;20078;-60
2020/12/26 10:51:49;;;;;;;9.82;7.10;;;6.10;99.90;;;;;;5081976;28;20078;-60
2020/12/26 10:54:15;;;;;;;6.82;3.25;;;6.10;99.90;;;;;;5066179;28;20032;-60
2020/12/26 10:56:48;;;;;;;5.25;2.95;;;6.20;99.90;;;;;;5067434;28;20029;-61
2020/12/26 10:59:14;;;;;;;6.82;3.38;;;6.20;99.90;;;;;;5065860;28;20029;-60
2020/12/26 11:01:39;;;;;;;12.20;6.93;;;6.30;99.90;;;;;;5064903;28;20451;-60
2020/12/26 11:04:05;;;;;;;14.95;8.52;;;6.30;99.90;;;;;;5073563;28;20071;-61
2020/12/26 11:06:32;;;;;;;7.10;3.55;;;6.40;99.90;;;;;;5066360;28;20028;-60
2020/12/26 11:08:57;;;;;;;5.25;3.60;;;6.40;99.90;;;;;;5079050;28;20487;-60
2020/12/26 11:11:24;;;;;;;5.03;3.90;;;6.50;99.90;;;;;;5064435;28;20044;-60
2020/12/26 11:13:49;;;;;;;6.25;4.88;;;6.50;99.90;;;;;;5064585;28;20029;-61
2020/12/26 11:16:17;;;;;;;4.47;2.60;;;6.60;99.90;;;;;;5067110;28;20081;-60
2020/12/26 11:18:44;;;;;;;3.30;2.55;;;6.60;99.90;;;;;;5074185;28;20036;-60
2020/12/26 11:21:17;;;;;;;5.20;2.58;;;6.70;99.90;;;;;;5070685;28;20024;-62
2020/12/26 11:23:43;;;;;;;4.38;2.20;;;6.70;99.90;;;;;;5066311;28;20028;-61
2020/12/26 11:26:11;;;;;;;6.28;2.10;;;6.70;99.90;;;;;;5079572;28;20059;-61
2020/12/26 11:28:37;;;;;;;2.97;2.08;;;6.80;99.90;;;;;;5075636;28;20028;-59
2020/12/26 11:31:03;;;;;;;5.60;2.00;;;6.80;99.90;;;;;;5081216;28;20028;-57
2020/12/26 11:33:29;;;;;;;4.30;2.05;;;6.80;99.90;;;;;;5075867;28;20542;-60
2020/12/26 11:35:54;;;;;;;3.63;2.03;;;6.90;99.90;;;;;;5072027;28;20039;-61
2020/12/26 11:38:20;;;;;;;3.83;1.65;;;6.90;99.90;;;;;;5088171;28;20031;-61
2020/12/26 11:40:46;;;;;;;5.07;2.25;;;7.00;99.90;;;;;;5078331;28;20115;-60
2020/12/26 11:43:11;;;;;;;3.45;1.80;;;7.00;99.90;;;;;;5071577;28;20072;-60
2020/12/26 11:45:37;;;;;;;4.97;1.60;;;7.10;99.90;;;;;;5083689;28;20036;-60
2020/12/26 11:48:04;;;;;;;2.25;1.65;;;7.10;99.90;;;;;;5076326;28;20029;-60
2020/12/26 11:50:29;;;;;;;4.65;2.00;;;7.20;99.90;;;;;;5089257;28;20031;-60
2020/12/26 11:52:55;;;;;;;8.43;3.85;;;7.20;99.90;;;;;;5078050;28;20025;-60
2020/12/26 11:55:21;;;;;;;6.28;2.60;;;7.30;99.90;;;;;;5070383;28;20086;-59
2020/12/26 11:57:46;;;;;;;4.35;2.50;;;7.30;99.90;;;;;;5081674;28;20037;-60
2020/12/26 12:00:12;;;;;;;4.05;2.38;;;7.40;99.90;;;;;;5052384;28;20095;-60
2020/12/26 12:02:38;;;;;;;3.33;2.08;;;7.50;99.90;;;;;;5057540;28;20484;-60
2020/12/26 12:05:04;;;;;;;3.95;2.45;;;7.50;99.90;;;;;;5071422;28;20090;-60
2020/12/26 12:07:29;;;;;;;3.97;2.17;;;7.50;99.90;;;;;;5071994;28;20024;-60
2020/12/26 12:09:55;;;;;;;5.00;2.20;;;7.60;99.90;;;;;;5052074;28;20021;-60
2020/12/26 12:12:21;;;;;;;4.47;2.20;;;7.60;99.90;;;;;;5051196;28;20052;-60
2020/12/26 12:14:46;;;;;;;2.75;1.33;;;7.60;99.90;;;;;;5067171;28;20028;-60
2020/12/26 12:17:12;;;;;;;3.95;1.30;;;7.70;99.90;;;;;;5077208;28;20033;-60
2020/12/26 12:19:38;;;;;;;1.42;1.20;;;7.70;99.90;;;;;;5062833;28;20048;-59
2020/12/26 12:22:04;;;;;;;1.75;1.10;;;7.70;99.90;;;;;;5052077;28;20031;-60
2020/12/26 12:24:29;;;;;;;3.50;1.65;;;7.70;99.90;;;;;;5066588;28;20048;-61
2020/12/26 12:26:55;;;;;;;1.95;1.20;;;7.70;99.90;;;;;;5069573;28;20471;-60
2020/12/26 12:29:20;;;;;;;5.80;1.70;;;7.70;99.90;;;;;;5061968;28;20382;-61
2020/12/26 12:31:46;;;;;;;4.93;2.25;;;7.70;99.90;;;;;;5079486;28;20035;-60
2020/12/26 12:34:12;;;;;;;26.48;12.43;;;7.80;99.90;;;;;;5063713;28;20109;-60
2020/12/26 12:36:43;;;;;;;17.73;11.20;;;7.80;99.90;;;;;;5071561;28;20039;-60
2020/12/26 12:39:09;;;;;;;5.25;2.58;;;7.80;99.90;;;;;;5077083;28;20032;-61
2020/12/26 12:41:35;;;;;;;27.70;17.05;;;7.90;99.90;;;;;;5079899;28;20874;-62
2020/12/26 12:44:01;;;;;;;3.78;2.65;;;7.90;99.90;;;;;;5073103;28;20025;-61
2020/12/26 12:46:27;;;;;;;26.08;15.82;;;7.90;99.90;;;;;;5077632;28;20078;-61
2020/12/26 12:48:52;;;;;;;5.78;2.55;;;7.90;99.90;;;;;;5075078;28;20394;-61
2020/12/26 12:51:18;;;;;;;5.75;3.50;;;7.90;99.90;;;;;;5075025;28;20032;-61
2020/12/26 12:53:44;;;;;;;5.25;2.67;;;7.90;99.90;;;;;;5070713;28;20104;-60
2020/12/26 12:56:10;;;;;;;4.97;2.40;;;8.00;99.90;;;;;;5075524;28;20111;-60
2020/12/26 12:58:36;;;;;;;4.45;2.60;;;8.00;99.90;;;;;;5077395;28;20028;-59